Time;durP1;ratioP1;P1;durP2;ratioP2;P2;SDS_P1;SDS_P2;PMS_P1;PMS_P2;Temp;Humidity;BMP_temperature;BMP_pressure;BME280_temperature;BME280_humidity;BME280_pressure;Samples;Min_cycle;Max_cycle;Signal;HPM_P1;HPM_P2
2021/10/12 00:01:23;;;;;;;7.83;2.87;;;8.80;99.90;;;;;;5116236;28;20204;-71
2021/10/12 00:03:50;;;;;;;5.33;2.00;;;8.80;99.90;;;;;;5112425;27;20193;-71
2021/10/12 00:06:18;;;;;;;8.57;2.47;;;8.80;99.90;;;;;;5118715;28;20201;-71
2021/10/12 00:08:45;;;;;;;9.17;2.43;;;8.80;99.90;;;;;;5112044;27;20211;-71
2021/10/12 00:11:12;;;;;;;6.43;2.60;;;8.80;99.90;;;;;;5112536;28;20196;-71
2021/10/12 00:13:39;;;;;;;6.73;2.80;;;8.80;99.90;;;;;;5112472;28;20554;-71
2021/10/12 00:16:06;;;;;;;5.47;2.57;;;8.90;99.90;;;;;;5117342;28;20204;-71
2021/10/12 00:18:34;;;;;;;4.07;2.63;;;8.80;99.90;;;;;;5118417;28;20196;-72
2021/10/12 00:21:01;;;;;;;9.40;3.60;;;8.90;99.90;;;;;;5111672;27;20196;-71
2021/10/12 00:23:28;;;;;;;7.90;3.23;;;9.00;99.90;;;;;;5114806;27;20682;-71
2021/10/12 00:25:55;;;;;;;11.03;3.70;;;9.00;99.90;;;;;;5120864;27;20204;-71
2021/10/12 00:28:21;;;;;;;8.37;3.00;;;8.90;99.90;;;;;;5119548;27;20568;-71
2021/10/12 00:30:48;;;;;;;7.63;3.23;;;8.90;99.90;;;;;;5116006;27;20209;-71
2021/10/12 00:33:15;;;;;;;8.57;3.57;;;8.90;99.90;;;;;;5115099;27;20193;-71
2021/10/12 00:35:43;;;;;;;9.10;3.13;;;8.90;99.90;;;;;;5119895;27;20209;-71
2021/10/12 00:38:10;;;;;;;12.97;3.30;;;9.00;99.90;;;;;;5117418;27;20211;-71
2021/10/12 00:40:37;;;;;;;9.07;3.40;;;9.00;99.90;;;;;;5116376;27;20193;-71
2021/10/12 00:43:04;;;;;;;9.67;3.10;;;9.10;99.90;;;;;;5120662;27;20258;-71
2021/10/12 00:45:32;;;;;;;9.00;3.23;;;9.10;99.90;;;;;;5124925;27;20205;-71
2021/10/12 00:48:00;;;;;;;7.83;3.87;;;9.10;99.90;;;;;;5123362;27;20199;-71
2021/10/12 00:50:30;;;;;;;9.07;3.60;;;9.10;99.90;;;;;;5120276;27;20203;-71
2021/10/12 00:52:58;;;;;;;7.87;3.83;;;9.20;99.90;;;;;;5115614;27;20189;-71
2021/10/12 00:55:25;;;;;;;12.90;4.00;;;9.20;99.90;;;;;;5117359;27;20563;-71
2021/10/12 00:57:52;;;;;;;8.13;3.83;;;9.10;99.90;;;;;;5114870;27;20200;-71
2021/10/12 01:00:19;;;;;;;7.70;2.90;;;9.10;99.90;;;;;;5118743;27;20213;-71
2021/10/12 01:02:47;;;;;;;11.87;4.33;;;9.10;99.90;;;;;;5115063;27;20213;-71
2021/10/12 01:05:14;;;;;;;7.00;3.00;;;9.10;99.90;;;;;;5117979;27;20554;-71
2021/10/12 01:07:41;;;;;;;5.67;3.20;;;9.10;99.90;;;;;;5120355;27;20200;-71
2021/10/12 01:10:10;;;;;;;7.80;3.13;;;9.10;99.90;;;;;;5116612;27;20662;-71
2021/10/12 01:12:38;;;;;;;9.47;3.40;;;9.20;99.90;;;;;;5117031;27;20580;-71
2021/10/12 01:15:05;;;;;;;8.10;4.10;;;9.20;99.90;;;;;;5117421;27;20659;-71
2021/10/12 01:17:32;;;;;;;9.53;3.20;;;9.20;99.90;;;;;;5114724;27;20204;-71
2021/10/12 01:19:59;;;;;;;5.87;3.43;;;9.20;99.90;;;;;;5112857;27;20197;-71
2021/10/12 01:22:27;;;;;;;6.97;3.40;;;9.30;99.90;;;;;;5113664;27;20595;-71
2021/10/12 01:24:54;;;;;;;6.63;3.50;;;9.30;99.90;;;;;;5118084;27;20643;-71
2021/10/12 01:27:22;;;;;;;8.83;3.67;;;9.30;99.90;;;;;;5116930;27;20205;-71
2021/10/12 01:29:49;;;;;;;8.43;3.60;;;9.30;99.90;;;;;;5116434;27;20268;-71
2021/10/12 01:32:16;;;;;;;6.30;3.20;;;9.30;99.90;;;;;;5115568;27;20575;-71
2021/10/12 01:34:43;;;;;;;12.20;3.40;;;9.30;99.90;;;;;;5116433;27;20196;-71
2021/10/12 01:37:11;;;;;;;9.80;3.60;;;9.30;99.90;;;;;;5116626;27;20201;-71
2021/10/12 01:39:40;;;;;;;4.67;3.10;;;9.20;99.90;;;;;;5116857;27;20201;-71
2021/10/12 01:42:06;;;;;;;10.63;3.27;;;9.20;99.90;;;;;;5119262;27;20201;-76
2021/10/12 01:44:33;;;;;;;7.47;3.23;;;9.20;99.90;;;;;;5117040;27;20205;-78
2021/10/12 01:47:00;;;;;;;8.43;3.57;;;9.20;99.90;;;;;;5117008;27;20692;-79
2021/10/12 01:49:27;;;;;;;7.87;4.00;;;9.10;99.90;;;;;;5118287;27;20197;-79
2021/10/12 01:51:54;;;;;;;5.77;2.90;;;9.20;99.90;;;;;;5117561;27;20529;-79
2021/10/12 01:54:23;;;;;;;9.90;3.80;;;9.10;99.90;;;;;;5116785;27;20205;-79
2021/10/12 01:56:53;;;;;;;10.90;4.00;;;9.20;99.90;;;;;;5126331;27;20307;-79
2021/10/12 01:59:21;;;;;;;11.53;3.57;;;9.20;99.90;;;;;;5115797;27;20208;-79
2021/10/12 02:01:48;;;;;;;8.93;3.33;;;9.20;99.90;;;;;;5116425;27;20201;-79
2021/10/12 02:04:15;;;;;;;9.80;4.13;;;9.20;99.90;;;;;;5119361;27;20227;-78
2021/10/12 02:06:42;;;;;;;7.60;3.40;;;9.20;99.90;;;;;;5119172;27;20201;-78
2021/10/12 02:09:08;;;;;;;6.50;3.40;;;9.20;99.90;;;;;;5114043;27;20975;-78
2021/10/12 02:11:35;;;;;;;11.77;3.60;;;9.20;99.90;;;;;;5117173;27;20203;-79
2021/10/12 02:14:04;;;;;;;7.50;3.50;;;9.20;99.90;;;;;;5112691;27;20684;-78
2021/10/12 02:16:31;;;;;;;11.03;4.30;;;9.10;99.90;;;;;;5114988;27;20198;-78
2021/10/12 02:18:58;;;;;;;9.77;3.67;;;9.10;99.90;;;;;;5117193;27;20204;-79
2021/10/12 02:21:25;;;;;;;7.70;3.63;;;9.10;99.90;;;;;;5118561;27;20192;-79
2021/10/12 02:23:52;;;;;;;11.13;4.57;;;9.10;99.90;;;;;;5119344;27;20227;-78
2021/10/12 02:26:18;;;;;;;8.27;3.70;;;9.10;99.90;;;;;;5112521;27;20215;-78
2021/10/12 02:28:45;;;;;;;8.20;3.80;;;9.10;99.90;;;;;;5116308;27;20197;-78
2021/10/12 02:31:13;;;;;;;11.80;4.50;;;9.10;99.90;;;;;;5124184;27;20205;-78
2021/10/12 02:33:40;;;;;;;9.70;5.00;;;9.00;99.90;;;;;;5120716;27;20646;-78
2021/10/12 02:36:07;;;;;;;8.33;3.90;;;9.00;99.90;;;;;;5120360;27;20209;-79
2021/10/12 02:38:34;;;;;;;7.23;4.30;;;9.00;99.90;;;;;;5117667;27;20197;-78
2021/10/12 02:41:01;;;;;;;10.77;5.10;;;9.00;99.90;;;;;;5113186;27;20207;-78
2021/10/12 02:43:28;;;;;;;10.60;4.43;;;9.00;99.90;;;;;;5112383;27;20244;-78
2021/10/12 02:45:55;;;;;;;10.30;4.50;;;9.00;99.90;;;;;;5115884;27;20219;-78
2021/10/12 02:48:23;;;;;;;10.93;5.03;;;9.00;99.90;;;;;;5113741;27;20201;-79
2021/10/12 02:50:50;;;;;;;10.33;4.87;;;9.00;99.90;;;;;;5117921;27;20196;-79
2021/10/12 02:53:17;;;;;;;10.53;4.70;;;9.00;99.90;;;;;;5119167;27;20296;-79
2021/10/12 02:55:44;;;;;;;8.37;5.10;;;9.10;99.90;;;;;;5115329;27;20209;-78
2021/10/12 02:58:11;;;;;;;5.70;4.53;;;9.10;99.90;;;;;;5116967;27;20583;-79
2021/10/12 03:00:41;;;;;;;9.13;4.70;;;9.10;99.90;;;;;;5116121;27;20213;-79
2021/10/12 03:03:09;;;;;;;10.10;4.97;;;9.10;99.90;;;;;;5120732;27;20224;-79
2021/10/12 03:05:38;;;;;;;11.17;5.27;;;9.20;99.90;;;;;;5117930;27;20204;-79
2021/10/12 03:08:05;;;;;;;9.93;4.60;;;9.20;99.90;;;;;;5114172;27;20521;-79
2021/10/12 03:10:32;;;;;;;7.53;4.73;;;9.30;99.90;;;;;;5111262;27;20207;-79
2021/10/12 03:12:59;;;;;;;11.57;4.97;;;9.30;99.90;;;;;;5114735;27;20197;-79
2021/10/12 03:15:26;;;;;;;13.40;5.73;;;9.30;99.90;;;;;;5118548;27;20614;-79
2021/10/12 03:17:52;;;;;;;9.07;4.87;;;9.30;99.90;;;;;;5114812;27;20212;-79
2021/10/12 03:20:21;;;;;;;10.03;4.70;;;9.40;99.90;;;;;;5119039;27;20200;-79
2021/10/12 03:22:49;;;;;;;16.10;5.23;;;9.50;99.90;;;;;;5115705;27;20221;-79
2021/10/12 03:25:16;;;;;;;11.00;5.00;;;9.50;99.90;;;;;;5114155;27;20756;-79
2021/10/12 03:27:43;;;;;;;10.30;5.00;;;9.50;99.90;;;;;;5118889;27;20618;-79
2021/10/12 03:30:11;;;;;;;8.20;4.60;;;9.60;99.90;;;;;;5126854;27;20204;-79
2021/10/12 03:32:38;;;;;;;10.67;4.90;;;9.60;99.90;;;;;;5126187;27;20196;-79
2021/10/12 03:35:06;;;;;;;10.10;5.20;;;9.50;99.90;;;;;;5124373;27;20196;-79
2021/10/12 03:37:33;;;;;;;9.83;4.57;;;9.60;99.90;;;;;;5131039;27;20192;-78
2021/10/12 03:40:01;;;;;;;8.00;5.40;;;9.60;99.90;;;;;;5128517;27;20207;-79
2021/10/12 03:42:28;;;;;;;12.20;5.87;;;9.60;99.90;;;;;;5123169;27;20197;-79
2021/10/12 03:44:54;;;;;;;7.43;4.93;;;9.60;99.90;;;;;;5128296;27;20720;-79
2021/10/12 03:47:21;;;;;;;9.83;5.77;;;9.60;99.90;;;;;;5117406;27;20195;-79
2021/10/12 03:49:48;;;;;;;12.90;5.67;;;9.60;99.90;;;;;;5130357;27;20207;-79
2021/10/12 03:52:15;;;;;;;9.53;5.93;;;9.70;99.90;;;;;;5122299;27;20642;-79
2021/10/12 03:54:43;;;;;;;9.83;5.27;;;9.70;99.90;;;;;;5126335;27;20203;-79
2021/10/12 03:57:11;;;;;;;10.30;5.63;;;9.70;99.90;;;;;;5120827;27;20209;-78
2021/10/12 03:59:38;;;;;;;6.30;4.73;;;9.70;99.90;;;;;;5121811;27;20208;-79
2021/10/12 04:02:05;;;;;;;11.93;5.30;;;9.70;99.90;;;;;;5121125;28;20578;-79
2021/10/12 04:04:32;;;;;;;7.97;4.87;;;9.70;99.90;;;;;;5113783;27;20221;-79
2021/10/12 04:06:59;;;;;;;12.23;5.10;;;9.70;99.90;;;;;;5119383;28;20291;-79
2021/10/12 04:09:25;;;;;;;10.77;5.97;;;9.70;99.90;;;;;;5110779;27;20197;-79
2021/10/12 04:11:52;;;;;;;13.70;6.10;;;9.80;99.90;;;;;;5125689;27;20197;-79
2021/10/12 04:14:20;;;;;;;7.37;5.17;;;9.80;99.90;;;;;;5118059;28;20193;-79
2021/10/12 04:16:47;;;;;;;11.10;5.07;;;9.80;99.90;;;;;;5117592;28;20220;-80
2021/10/12 04:19:14;;;;;;;8.90;5.00;;;9.80;99.90;;;;;;5119447;27;20200;-79
2021/10/12 04:21:41;;;;;;;11.53;4.93;;;9.80;99.90;;;;;;5128555;28;20203;-80
2021/10/12 04:24:08;;;;;;;11.43;5.53;;;9.80;99.90;;;;;;5129647;28;20227;-79
2021/10/12 04:26:37;;;;;;;8.20;5.00;;;9.80;99.90;;;;;;5129121;27;20205;-79
2021/10/12 04:29:04;;;;;;;9.27;5.30;;;9.70;99.90;;;;;;5126815;28;20654;-79
2021/10/12 04:31:33;;;;;;;9.37;4.80;;;9.70;99.90;;;;;;5121003;27;20211;-78
2021/10/12 04:33:59;;;;;;;9.90;5.00;;;9.70;99.90;;;;;;5123753;28;20222;-78
2021/10/12 04:36:26;;;;;;;9.30;5.73;;;9.60;99.90;;;;;;5124576;27;20201;-78
2021/10/12 04:38:53;;;;;;;11.87;5.33;;;9.60;99.90;;;;;;5124756;28;20200;-78
2021/10/12 04:41:20;;;;;;;8.17;4.70;;;9.60;99.90;;;;;;5127557;28;20935;-78
2021/10/12 04:43:48;;;;;;;9.50;5.07;;;9.60;99.90;;;;;;5129329;28;20217;-79
2021/10/12 04:46:17;;;;;;;11.30;5.80;;;9.60;99.90;;;;;;5129793;27;20196;-78
2021/10/12 04:48:46;;;;;;;11.63;5.20;;;9.60;99.90;;;;;;5127132;27;20291;-78
2021/10/12 04:51:12;;;;;;;8.67;5.10;;;9.60;99.90;;;;;;5128051;28;20200;-78
2021/10/12 04:53:40;;;;;;;12.33;5.57;;;9.60;99.90;;;;;;5130833;28;20629;-78
2021/10/12 04:56:07;;;;;;;8.03;4.40;;;9.60;99.90;;;;;;5126038;28;20287;-78
2021/10/12 04:58:34;;;;;;;9.33;4.80;;;9.60;99.90;;;;;;5117122;28;20651;-79
2021/10/12 05:01:00;;;;;;;7.90;4.40;;;9.60;99.90;;;;;;5121746;27;20204;-78
2021/10/12 05:03:27;;;;;;;8.17;4.30;;;9.60;99.90;;;;;;5115284;28;20247;-78
2021/10/12 05:05:55;;;;;;;11.13;4.40;;;9.70;99.90;;;;;;5118556;28;20197;-78
2021/10/12 05:08:22;;;;;;;7.80;4.50;;;9.70;99.90;;;;;;5128345;27;20205;-69
2021/10/12 05:10:49;;;;;;;8.53;4.20;;;9.70;99.90;;;;;;5120209;27;20197;-78
2021/10/12 05:13:16;;;;;;;8.10;4.33;;;9.70;99.90;;;;;;5119496;27;20201;-77
2021/10/12 05:15:47;;;;;;;10.13;4.63;;;9.70;99.90;;;;;;5131973;27;20201;-77
2021/10/12 05:18:19;;;;;;;7.13;4.33;;;9.70;99.90;;;;;;5123241;27;20211;-78
2021/10/12 05:20:46;;;;;;;7.23;4.30;;;9.70;99.90;;;;;;5131462;27;20242;-77
2021/10/12 05:23:14;;;;;;;7.80;4.33;;;9.70;99.90;;;;;;5133653;27;20200;-77
2021/10/12 05:25:41;;;;;;;11.13;4.50;;;9.70;99.90;;;;;;5129877;27;20204;-78
2021/10/12 05:28:09;;;;;;;9.20;3.97;;;9.70;99.90;;;;;;5119986;27;20296;-77
2021/10/12 05:30:39;;;;;;;8.43;4.50;;;9.70;99.90;;;;;;5133036;27;20204;-78
2021/10/12 05:33:07;;;;;;;10.43;5.03;;;9.70;99.90;;;;;;5132646;27;20627;-78
2021/10/12 05:35:34;;;;;;;9.20;4.10;;;9.70;99.90;;;;;;5118290;27;20480;-78
2021/10/12 05:38:01;;;;;;;6.37;3.67;;;9.70;99.90;;;;;;5132037;27;20200;-78
2021/10/12 05:40:29;;;;;;;6.07;4.07;;;9.70;99.90;;;;;;5117036;27;20222;-78
2021/10/12 05:42:56;;;;;;;7.00;4.00;;;9.70;99.90;;;;;;5117955;27;20422;-78
2021/10/12 05:45:24;;;;;;;8.37;3.73;;;9.70;99.90;;;;;;5126228;27;20223;-77
2021/10/12 05:47:50;;;;;;;5.80;3.70;;;9.70;99.90;;;;;;5125018;27;20192;-78
2021/10/12 05:50:18;;;;;;;6.53;3.40;;;9.70;99.90;;;;;;5125338;27;20197;-79
2021/10/12 05:52:51;;;;;;;9.13;3.67;;;9.70;99.90;;;;;;5120790;27;20204;-77
2021/10/12 05:55:23;;;;;;;4.53;3.37;;;9.70;99.90;;;;;;5119930;27;20639;-78
2021/10/12 05:58:06;;;;;;;4.63;3.40;;;9.70;99.90;;;;;;5119366;27;20200;-78
2021/10/12 06:00:34;;;;;;;7.83;3.43;;;9.70;99.90;;;;;;5121758;27;20639;-78
2021/10/12 06:03:01;;;;;;;8.83;3.80;;;9.70;99.90;;;;;;5117565;27;20203;-78
2021/10/12 06:05:27;;;;;;;6.60;3.70;;;9.70;99.90;;;;;;5122329;27;20252;-78
2021/10/12 06:07:55;;;;;;;6.23;3.40;;;9.70;99.90;;;;;;5115475;27;20204;-78
2021/10/12 06:10:22;;;;;;;6.47;3.37;;;9.70;99.90;;;;;;5119993;27;20654;-79
2021/10/12 06:12:50;;;;;;;6.23;3.50;;;9.70;99.90;;;;;;5117970;27;20207;-78
2021/10/12 06:15:18;;;;;;;4.30;3.00;;;9.70;99.90;;;;;;5118815;27;20196;-78
2021/10/12 06:17:45;;;;;;;6.20;2.97;;;9.70;99.90;;;;;;5119453;27;20199;-78
2021/10/12 06:20:12;;;;;;;9.87;3.57;;;9.70;99.90;;;;;;5122988;27;20201;-78
2021/10/12 06:22:39;;;;;;;7.93;3.20;;;9.70;99.90;;;;;;5129038;27;20198;-78
2021/10/12 06:25:06;;;;;;;7.73;3.80;;;9.80;99.90;;;;;;5127027;27;20588;-78
2021/10/12 06:27:33;;;;;;;5.97;3.77;;;9.80;99.90;;;;;;5119710;27;20677;-78
2021/10/12 06:30:00;;;;;;;5.37;2.93;;;9.80;99.90;;;;;;5119541;27;20197;-78
2021/10/12 06:32:28;;;;;;;3.97;2.83;;;9.80;99.90;;;;;;5124382;27;20201;-78
2021/10/12 06:34:55;;;;;;;3.57;2.70;;;9.90;99.90;;;;;;5123424;27;20200;-78
2021/10/12 06:37:22;;;;;;;4.87;3.00;;;9.90;99.90;;;;;;5124642;27;20207;-78
2021/10/12 06:39:48;;;;;;;3.67;2.87;;;9.90;99.90;;;;;;5117122;27;20193;-79
2021/10/12 06:42:15;;;;;;;3.17;2.60;;;9.90;99.90;;;;;;5124981;27;20204;-79
2021/10/12 06:44:42;;;;;;;4.00;2.13;;;10.00;99.90;;;;;;5120417;27;20213;-79
2021/10/12 06:47:09;;;;;;;3.93;2.40;;;10.00;99.90;;;;;;5119876;27;20657;-79
2021/10/12 06:49:37;;;;;;;6.93;2.30;;;10.00;99.90;;;;;;5117139;27;20205;-79
2021/10/12 06:52:04;;;;;;;4.47;2.33;;;10.00;99.90;;;;;;5122555;27;20200;-78
2021/10/12 06:54:31;;;;;;;4.47;2.80;;;10.00;99.90;;;;;;5118549;27;20682;-78
2021/10/12 06:57:00;;;;;;;3.93;2.60;;;10.00;99.90;;;;;;5118371;27;20196;-79
2021/10/12 06:59:27;;;;;;;4.63;2.30;;;10.00;99.90;;;;;;5115142;27;20303;-79
2021/10/12 07:01:54;;;;;;;3.37;2.23;;;10.00;99.90;;;;;;5123539;27;20215;-79
2021/10/12 07:04:21;;;;;;;5.40;2.87;;;10.10;99.90;;;;;;5126547;27;20225;-79
2021/10/12 07:06:49;;;;;;;3.67;2.20;;;10.10;99.90;;;;;;5119504;27;20215;-79
2021/10/12 07:09:17;;;;;;;3.73;2.40;;;10.10;99.90;;;;;;5119892;27;20202;-79
2021/10/12 07:11:44;;;;;;;4.60;3.40;;;10.10;99.90;;;;;;5121783;27;20197;-79
2021/10/12 07:14:11;;;;;;;5.27;2.60;;;10.10;99.90;;;;;;5119928;27;20207;-78
2021/10/12 07:16:38;;;;;;;4.43;2.60;;;10.10;99.90;;;;;;5124604;27;20210;-78
2021/10/12 07:19:05;;;;;;;4.57;2.67;;;10.10;99.90;;;;;;5118076;27;20200;-78
2021/10/12 07:21:32;;;;;;;5.13;2.50;;;10.20;99.90;;;;;;5124353;27;20571;-78
2021/10/12 07:24:00;;;;;;;4.30;2.50;;;10.10;99.90;;;;;;5117549;27;20201;-78
2021/10/12 07:26:27;;;;;;;5.10;2.80;;;10.10;99.90;;;;;;5121638;27;20213;-78
2021/10/12 07:28:56;;;;;;;4.93;2.33;;;10.10;99.90;;;;;;5116355;27;20196;-78
2021/10/12 07:31:23;;;;;;;4.50;2.00;;;10.10;99.90;;;;;;5125275;27;20295;-79
2021/10/12 07:33:50;;;;;;;2.57;1.27;;;9.90;99.90;;;;;;5118711;27;20661;-79
2021/10/12 07:36:17;;;;;;;3.63;1.40;;;9.80;99.90;;;;;;5123183;27;20196;-79
2021/10/12 07:38:44;;;;;;;2.30;1.27;;;9.80;99.90;;;;;;5119738;27;20561;-78
2021/10/12 07:41:13;;;;;;;5.13;1.43;;;9.80;99.90;;;;;;5117420;27;20200;-78
2021/10/12 07:43:40;;;;;;;3.07;1.80;;;9.60;99.90;;;;;;5113165;27;20196;-78
2021/10/12 07:46:06;;;;;;;5.53;1.80;;;9.50;99.90;;;;;;5115497;27;20228;-78
2021/10/12 07:48:33;;;;;;;3.27;1.60;;;9.60;99.90;;;;;;5109502;27;20209;-78
2021/10/12 07:51:00;;;;;;;2.80;1.47;;;9.50;99.90;;;;;;5108956;27;20555;-77
2021/10/12 07:53:32;;;;;;;3.07;1.60;;;9.50;99.90;;;;;;5110914;27;20212;-78
2021/10/12 07:56:01;;;;;;;4.53;2.23;;;9.60;99.90;;;;;;5114932;27;20248;-77
2021/10/12 07:58:29;;;;;;;3.43;1.73;;;9.50;99.90;;;;;;5118456;27;20295;-77
2021/10/12 08:00:56;;;;;;;7.50;2.57;;;9.40;99.90;;;;;;5115230;27;20209;-76
2021/10/12 08:03:23;;;;;;;5.17;2.23;;;9.40;99.90;;;;;;5120038;27;20216;-78
2021/10/12 08:05:50;;;;;;;6.77;2.83;;;9.40;99.90;;;;;;5117560;27;20926;-78
2021/10/12 08:08:17;;;;;;;5.67;2.83;;;9.40;99.90;;;;;;5112381;28;20263;-78
2021/10/12 08:10:44;;;;;;;5.70;2.50;;;9.40;99.90;;;;;;5110530;28;20208;-76
2021/10/12 08:13:14;;;;;;;4.20;2.33;;;9.40;99.90;;;;;;5119343;28;20258;-77
2021/10/12 08:15:46;;;;;;;2.83;2.33;;;9.40;99.90;;;;;;5110993;28;20238;-77
2021/10/12 08:18:13;;;;;;;6.20;2.90;;;9.50;99.90;;;;;;5112628;28;20218;-77
2021/10/12 08:20:41;;;;;;;3.97;2.33;;;9.50;99.90;;;;;;5110524;28;20242;-77
2021/10/12 08:23:07;;;;;;;5.33;3.07;;;9.60;99.90;;;;;;5118039;28;20565;-77
2021/10/12 08:25:34;;;;;;;8.27;3.83;;;9.60;99.90;;;;;;5108664;28;20702;-76
2021/10/12 08:28:01;;;;;;;7.53;3.37;;;9.70;99.90;;;;;;5111852;28;20568;-77
2021/10/12 08:30:28;;;;;;;3.90;2.60;;;9.80;99.90;;;;;;5110562;28;20200;-68
2021/10/12 08:32:57;;;;;;;4.77;3.17;;;9.80;99.90;;;;;;5115822;28;20204;-69
2021/10/12 08:35:23;;;;;;;6.23;3.50;;;9.90;99.90;;;;;;5118517;28;20642;-69
2021/10/12 08:37:50;;;;;;;6.20;3.13;;;10.00;99.90;;;;;;5112703;28;20595;-69
2021/10/12 08:40:18;;;;;;;4.40;3.30;;;10.10;99.90;;;;;;5109669;28;20204;-69
2021/10/12 08:42:47;;;;;;;5.97;3.50;;;10.20;99.90;;;;;;5112122;27;20717;-69
2021/10/12 08:45:15;;;;;;;3.77;3.10;;;10.30;99.90;;;;;;5112287;27;20377;-69
2021/10/12 08:47:43;;;;;;;2.30;2.10;;;10.40;99.90;;;;;;5117253;27;20573;-69
2021/10/12 08:50:13;;;;;;;7.37;2.37;;;10.50;99.90;;;;;;5111556;27;20219;-69
2021/10/12 08:52:39;;;;;;;3.87;1.90;;;10.60;99.90;;;;;;5116952;27;20553;-69
2021/10/12 08:55:07;;;;;;;2.30;1.67;;;10.60;99.90;;;;;;5116490;27;20205;-69
2021/10/12 08:57:35;;;;;;;3.33;1.67;;;10.60;99.90;;;;;;5122451;27;20586;-69
2021/10/12 09:00:06;;;;;;;5.23;3.27;;;10.70;99.90;;;;;;5114972;27;20248;-69
2021/10/12 09:02:33;;;;;;;2.50;1.90;;;10.80;99.90;;;;;;5125320;27;20223;-69
2021/10/12 09:05:00;;;;;;;6.23;1.40;;;10.80;99.90;;;;;;5122103;27;20580;-69
2021/10/12 09:07:29;;;;;;;1.87;1.30;;;10.90;99.90;;;;;;5120410;27;20211;-69
2021/10/12 09:09:59;;;;;;;4.43;1.37;;;10.80;99.90;;;;;;5114410;27;20625;-69
2021/10/12 09:12:43;;;;;;;1.27;1.00;;;11.00;99.90;;;;;;5116756;27;20203;-70
2021/10/12 09:15:11;;;;;;;3.33;1.10;;;11.10;99.90;;;;;;5121852;27;20205;-69
2021/10/12 09:17:40;;;;;;;1.97;1.23;;;11.00;99.90;;;;;;5121765;27;20591;-70
2021/10/12 09:20:29;;;;;;;3.30;1.60;;;10.90;99.90;;;;;;5120411;27;20658;-69
2021/10/12 09:23:11;;;;;;;2.43;0.90;;;11.10;99.90;;;;;;5116446;27;20200;-69
2021/10/12 09:25:40;;;;;;;2.23;1.30;;;11.10;99.90;;;;;;5123040;27;20219;-69
2021/10/12 09:28:21;;;;;;;3.20;0.97;;;11.10;99.90;;;;;;5116823;27;20662;-69
2021/10/12 09:30:48;;;;;;;2.73;1.33;;;11.20;99.90;;;;;;5118064;27;20215;-69
2021/10/12 09:33:15;;;;;;;3.33;0.90;;;11.40;99.90;;;;;;5117138;27;20282;-69
2021/10/12 09:35:42;;;;;;;2.57;0.73;;;11.30;99.90;;;;;;5123723;27;20407;-69
2021/10/12 09:38:13;;;;;;;3.60;1.10;;;11.40;99.90;;;;;;5113655;27;20201;-70
2021/10/12 09:40:42;;;;;;;3.60;0.73;;;11.80;99.90;;;;;;5112497;27;20205;-70
2021/10/12 09:43:09;;;;;;;4.63;1.97;;;12.00;99.90;;;;;;5115377;27;20212;-70
2021/10/12 09:45:40;;;;;;;3.90;1.20;;;11.90;99.90;;;;;;5124293;27;20215;-69
2021/10/12 09:48:32;;;;;;;2.50;1.43;;;12.00;99.90;;;;;;5120788;27;20203;-69
2021/10/12 09:51:09;;;;;;;2.50;1.20;;;12.10;99.90;;;;;;5115566;27;20201;-69
2021/10/12 09:53:38;;;;;;;2.73;1.13;;;12.20;99.90;;;;;;5114765;27;20208;-69
2021/10/12 09:56:06;;;;;;;4.60;1.33;;;12.30;99.90;;;;;;5117120;27;20203;-70
2021/10/12 09:58:34;;;;;;;2.50;1.20;;;12.20;99.90;;;;;;5115940;27;20623;-69
2021/10/12 10:01:03;;;;;;;5.13;1.67;;;12.50;99.90;;;;;;5122387;27;20685;-69
2021/10/12 10:03:31;;;;;;;5.77;2.37;;;12.90;99.90;;;;;;5119018;27;20695;-69
2021/10/12 10:06:02;;;;;;;3.87;1.10;;;12.80;99.90;;;;;;5120354;27;20576;-70
2021/10/12 10:08:30;;;;;;;7.73;2.10;;;12.80;99.90;;;;;;5120513;27;20211;-69
2021/10/12 10:10:59;;;;;;;2.53;1.27;;;13.00;99.90;;;;;;5118206;27;20716;-69
2021/10/12 10:13:27;;;;;;;4.70;1.90;;;13.10;99.90;;;;;;5118632;27;20243;-69
2021/10/12 10:15:55;;;;;;;5.10;1.80;;;13.20;99.90;;;;;;5117056;27;20623;-69
2021/10/12 10:18:23;;;;;;;2.77;1.70;;;13.20;99.90;;;;;;5113556;27;20649;-70
2021/10/12 10:20:52;;;;;;;5.10;2.43;;;13.00;99.90;;;;;;5119667;27;20570;-69
2021/10/12 10:23:57;;;;;;;5.13;1.60;;;13.70;99.90;;;;;;5117817;27;20547;-70
2021/10/12 10:26:28;;;;;;;6.60;1.80;;;13.20;99.90;;;;;;5118809;27;20257;-69
2021/10/12 10:28:56;;;;;;;3.57;1.60;;;13.40;99.90;;;;;;5126396;27;20835;-69
2021/10/12 10:31:39;;;;;;;6.23;1.97;;;13.60;99.90;;;;;;5115710;27;20659;-69
2021/10/12 10:34:32;;;;;;;3.27;2.20;;;13.80;99.90;;;;;;5114905;27;20325;-69
2021/10/12 10:37:35;;;;;;;6.80;1.83;;;13.80;99.90;;;;;;5120039;27;20197;-69
2021/10/12 10:40:21;;;;;;;3.87;2.07;;;14.10;99.90;;;;;;5114895;27;20208;-69
2021/10/12 10:43:01;;;;;;;4.60;1.50;;;14.50;99.90;;;;;;5110557;27;20569;-69
2021/10/12 10:45:47;;;;;;;5.20;1.40;;;14.50;99.90;;;;;;5116794;27;20216;-70
2021/10/12 10:48:16;;;;;;;4.47;1.40;;;14.00;99.90;;;;;;5108383;27;20564;-69
2021/10/12 10:50:43;;;;;;;5.13;1.53;;;14.10;99.90;;;;;;5120294;27;20443;-69
2021/10/12 10:53:11;;;;;;;3.20;1.20;;;14.50;99.90;;;;;;5110916;27;20309;-69
2021/10/12 10:55:41;;;;;;;7.47;1.90;;;15.00;99.90;;;;;;5115920;27;20212;-69
2021/10/12 10:58:13;;;;;;;4.87;1.87;;;14.50;99.90;;;;;;5112376;27;20207;-69
2021/10/12 11:00:47;;;;;;;4.63;1.77;;;13.80;99.90;;;;;;5117932;27;20244;-69
2021/10/12 11:03:35;;;;;;;5.03;1.57;;;13.60;99.90;;;;;;5111677;27;20715;-69
2021/10/12 11:06:02;;;;;;;5.50;1.90;;;13.40;99.90;;;;;;5116883;27;21364;-69
2021/10/12 11:08:32;;;;;;;5.50;2.00;;;13.20;99.90;;;;;;5117461;27;20214;-69
2021/10/12 11:11:00;;;;;;;5.97;1.80;;;13.40;99.90;;;;;;5111505;27;20683;-69
2021/10/12 11:13:42;;;;;;;5.10;2.20;;;14.00;99.90;;;;;;5112302;27;20659;-69
2021/10/12 11:16:11;;;;;;;3.60;1.60;;;14.50;99.90;;;;;;5118720;27;20217;-69
2021/10/12 11:18:40;;;;;;;7.73;1.77;;;14.40;99.90;;;;;;5118949;27;20568;-69
2021/10/12 11:21:08;;;;;;;3.50;1.43;;;14.10;99.90;;;;;;5123533;27;20214;-69
2021/10/12 11:23:36;;;;;;;4.27;1.53;;;13.80;99.90;;;;;;5125898;27;20307;-69
2021/10/12 11:26:07;;;;;;;6.10;1.63;;;13.40;99.90;;;;;;5115958;27;20219;-69
2021/10/12 11:28:38;;;;;;;6.83;1.47;;;13.20;99.90;;;;;;5111163;27;20719;-69
2021/10/12 11:31:07;;;;;;;6.73;1.43;;;13.60;99.90;;;;;;5116483;27;20201;-70
2021/10/12 11:33:37;;;;;;;4.80;1.57;;;13.50;99.90;;;;;;5115519;27;20211;-69
2021/10/12 11:36:06;;;;;;;1.93;1.10;;;13.40;99.90;;;;;;5111528;27;20188;-69
2021/10/12 11:38:36;;;;;;;3.43;1.37;;;13.30;99.90;;;;;;5112710;27;20209;-69
2021/10/12 11:41:24;;;;;;;5.47;1.30;;;13.50;99.90;;;;;;5110808;27;20208;-70
2021/10/12 11:43:54;;;;;;;3.73;1.00;;;13.40;99.90;;;;;;5116406;27;20196;-69
2021/10/12 11:46:24;;;;;;;7.17;1.27;;;13.30;99.90;;;;;;5109027;27;20217;-69
2021/10/12 11:48:51;;;;;;;7.23;1.20;;;13.10;99.90;;;;;;5114260;27;20205;-70
2021/10/12 11:51:20;;;;;;;2.53;1.30;;;12.90;99.90;;;;;;5118650;27;20672;-69
2021/10/12 11:53:48;;;;;;;2.93;1.20;;;13.00;99.90;;;;;;5114909;27;20663;-69
2021/10/12 11:56:17;;;;;;;5.40;1.60;;;13.30;99.90;;;;;;5113474;27;20211;-69
2021/10/12 11:58:44;;;;;;;1.67;1.00;;;14.10;99.90;;;;;;5113217;27;20217;-69
2021/10/12 12:01:17;;;;;;;6.73;1.70;;;14.20;99.90;;;;;;5116915;27;20693;-69
2021/10/12 12:03:44;;;;;;;2.23;1.10;;;13.70;99.90;;;;;;5119244;28;20217;-69
2021/10/12 12:06:11;;;;;;;2.20;1.73;;;13.40;99.90;;;;;;5109817;28;20545;-69
2021/10/12 12:08:41;;;;;;;2.70;1.70;;;13.50;99.90;;;;;;5108680;28;20209;-70
2021/10/12 12:11:08;;;;;;;3.13;1.00;;;13.70;99.90;;;;;;5109151;28;20254;-69
2021/10/12 12:13:36;;;;;;;4.90;1.23;;;13.80;99.90;;;;;;5115921;27;20208;-69
2021/10/12 12:16:04;;;;;;;4.37;1.47;;;13.70;99.90;;;;;;5107659;28;20200;-70
2021/10/12 12:18:40;;;;;;;3.27;1.20;;;14.10;99.90;;;;;;5111327;27;20209;-69
2021/10/12 12:21:07;;;;;;;7.17;1.50;;;14.10;99.90;;;;;;5124748;27;20203;-69
2021/10/12 12:23:37;;;;;;;5.37;1.40;;;14.60;99.90;;;;;;5112851;27;20567;-69
2021/10/12 12:26:04;;;;;;;3.30;1.40;;;14.20;99.90;;;;;;5119304;27;20216;-69
2021/10/12 12:28:32;;;;;;;4.10;1.33;;;13.80;99.90;;;;;;5114548;27;20204;-69
2021/10/12 12:30:58;;;;;;;2.43;1.40;;;13.50;99.90;;;;;;5119639;27;20205;-69
2021/10/12 12:33:25;;;;;;;3.77;1.30;;;13.30;99.90;;;;;;5111392;27;20201;-69
2021/10/12 12:35:54;;;;;;;3.87;1.10;;;13.30;99.90;;;;;;5123190;27;20546;-69
2021/10/12 12:38:27;;;;;;;2.97;0.80;;;14.00;99.90;;;;;;5128044;27;20219;-69
2021/10/12 12:40:55;;;;;;;1.47;0.80;;;13.30;99.90;;;;;;5135381;27;20208;-69
2021/10/12 12:43:23;;;;;;;3.87;1.53;;;12.80;99.90;;;;;;5126270;27;20827;-69
2021/10/12 12:46:09;;;;;;;2.30;0.73;;;13.00;99.90;;;;;;5106100;27;20595;-69
2021/10/12 12:48:37;;;;;;;6.30;1.47;;;13.50;99.90;;;;;;5108238;27;20435;-70
2021/10/12 12:51:08;;;;;;;2.63;1.23;;;14.00;99.90;;;;;;5122239;27;20197;-70
2021/10/12 12:53:43;;;;;;;2.43;0.83;;;14.20;99.90;;;;;;5117378;27;20204;-70
2021/10/12 12:56:11;;;;;;;3.47;1.50;;;14.40;99.90;;;;;;5113340;27;20204;-70
2021/10/12 12:58:39;;;;;;;1.73;0.80;;;14.20;99.90;;;;;;5118449;27;20208;-70